createdAt,value
2023-02-06T00:08:34.358Z,2.40
2023-02-06T00:17:05.587Z,2.30
2023-02-06T00:30:31.670Z,2.10
2023-02-06T00:33:42.556Z,2.00
2023-02-06T00:44:20.148Z,1.90
2023-02-06T00:47:38.480Z,2.00
2023-02-06T00:51:14.854Z,2.10
2023-02-06T00:54:39.566Z,1.80
2023-02-06T00:57:52.508Z,1.90
2023-02-06T01:07:58.314Z,1.80
2023-02-06T01:11:18.450Z,1.80
2023-02-06T01:19:03.691Z,1.70
2023-02-06T01:21:42.774Z,1.70
2023-02-06T01:24:48.037Z,1.60
2023-02-06T01:32:27.902Z,1.50
2023-02-06T01:35:40.297Z,1.50
2023-02-06T01:38:53.755Z,1.50
2023-02-06T01:42:18.941Z,1.40
2023-02-06T01:49:22.787Z,1.60
2023-02-06T01:52:31.991Z,1.40
2023-02-06T01:55:45.269Z,1.50
2023-02-06T01:59:23.039Z,1.40
2023-02-06T02:02:29.669Z,1.40
2023-02-06T02:05:45.658Z,1.40
2023-02-06T02:08:58.314Z,1.30
2023-02-06T02:12:14.524Z,1.40
2023-02-06T02:15:22.457Z,1.40
2023-02-06T02:19:05.166Z,1.40
2023-02-06T02:22:34.912Z,1.20
2023-02-06T02:27:18.061Z,1.20
2023-02-06T02:34:13.642Z,1.40
2023-02-06T02:37:40.096Z,1.30
2023-02-06T02:41:04.398Z,1.30
2023-02-06T02:44:42.308Z,1.20
2023-02-06T02:52:12.379Z,1.10
2023-02-06T02:55:38.786Z,1.20
2023-02-06T02:59:15.343Z,1.10
2023-02-06T03:02:52.859Z,1.00
2023-02-06T03:06:56.138Z,0.80
2023-02-06T03:10:22.225Z,1.00
2023-02-06T03:17:50.377Z,1.00
2023-02-06T03:21:01.817Z,1.00
2023-02-06T03:58:24.896Z,0.90
2023-02-06T05:07:05.958Z,0.80
2023-02-06T05:24:52.620Z,0.70
2023-02-06T05:35:18.905Z,0.50
2023-02-06T06:00:06.102Z,0.60
2023-02-06T06:11:36.885Z,0.70
2023-02-06T06:14:46.589Z,0.70
2023-02-06T06:19:09.351Z,0.70
2023-02-06T06:22:05.071Z,0.60
2023-02-06T06:29:12.886Z,0.60
2023-02-06T06:33:46.991Z,0.60
2023-02-06T06:43:23.115Z,0.40
2023-02-06T06:46:58.578Z,0.50
2023-02-06T06:50:20.229Z,0.30
2023-02-06T07:01:30.481Z,0.60
2023-02-06T07:09:55.142Z,0.50
2023-02-06T07:28:33.410Z,0.30
2023-02-06T07:34:52.954Z,0.30
2023-02-06T07:38:02.717Z,0.40
2023-02-06T07:41:15.352Z,0.40
2023-02-06T07:44:27.670Z,0.40
2023-02-06T07:47:36.159Z,0.40
2023-02-06T07:50:43.596Z,0.40
2023-02-06T07:53:52.481Z,0.40
2023-02-06T07:57:23.962Z,0.30
2023-02-06T08:00:48.310Z,0.30
2023-02-06T08:03:56.179Z,0.20
2023-02-06T08:10:45.585Z,0.30
2023-02-06T08:17:55.085Z,0.40
2023-02-06T08:24:57.685Z,0.50
2023-02-06T08:33:16.975Z,0.50
2023-02-06T08:36:26.986Z,0.50
2023-02-06T08:43:10.719Z,0.50
2023-02-06T08:50:13.490Z,0.40
2023-02-06T08:53:40.175Z,0.40
2023-02-06T09:21:25.108Z,0.30
2023-02-06T09:24:50.840Z,0.30
2023-02-06T09:29:08.153Z,0.30
2023-02-06T09:31:41.192Z,0.40
2023-02-06T09:39:02.258Z,0.40
2023-02-06T09:42:23.598Z,0.20
2023-02-06T09:50:11.514Z,0.30
2023-02-06T09:53:52.489Z,0.10
2023-02-06T10:01:17.776Z,0.00
2023-02-06T10:12:27.330Z,0.10
2023-02-06T10:15:57.900Z,0.10
2023-02-06T10:23:59.120Z,-0.20
2023-02-06T10:27:29.144Z,-0.20
2023-02-06T11:49:48.295Z,1.10
2023-02-06T11:53:22.480Z,1.00
2023-02-06T11:56:49.140Z,1.20
2023-02-06T12:03:56.210Z,1.20
2023-02-06T12:07:21.430Z,0.90
2023-02-06T12:18:03.396Z,0.40
2023-02-06T12:21:26.078Z,0.30
2023-02-06T12:24:42.805Z,0.30
2023-02-06T12:27:55.422Z,0.10
2023-02-06T12:31:23.924Z,0.00
2023-02-06T12:34:45.319Z,0.30
2023-02-06T12:38:01.244Z,-0.10
2023-02-06T12:41:40.628Z,0.00
2023-02-06T12:45:14.164Z,0.20
2023-02-06T12:52:51.151Z,0.40
2023-02-06T12:56:29.955Z,0.50
2023-02-06T13:00:15.325Z,0.20
2023-02-06T13:03:58.291Z,0.30
2023-02-06T13:07:23.501Z,0.20
2023-02-06T13:13:53.872Z,0.20
2023-02-06T14:16:33.676Z,0.30
2023-02-06T14:20:24.498Z,0.60
2023-02-06T16:44:44.618Z,-0.20
2023-02-06T16:48:00.691Z,-0.40
2023-02-06T16:51:07.691Z,-0.30
2023-02-06T16:54:34.420Z,-0.40
2023-02-06T16:57:45.817Z,-0.50
2023-02-06T17:00:52.645Z,-0.50
2023-02-06T17:04:00.573Z,-0.40
2023-02-06T17:07:49.895Z,-0.40
2023-02-06T17:17:26.175Z,-0.10
2023-02-06T17:44:29.666Z,-0.40
2023-02-06T17:47:39.267Z,-0.50
2023-02-06T17:51:38.816Z,-0.50
2023-02-06T17:54:44.999Z,-0.50
2023-02-06T17:58:04.346Z,-0.60
2023-02-06T18:02:24.666Z,-0.40
2023-02-06T18:08:39.546Z,-0.60
2023-02-06T18:11:44.852Z,-0.70
2023-02-06T18:14:50.481Z,-0.90
2023-02-06T18:17:57.624Z,-0.50
2023-02-06T18:21:05.414Z,-0.70
2023-02-06T18:24:29.918Z,-0.80
2023-02-06T18:27:42.686Z,-0.90
2023-02-06T18:39:32.173Z,-1.00
2023-02-06T18:42:51.541Z,-1.10
2023-02-06T18:45:55.805Z,-1.10
2023-02-06T18:49:00.553Z,-0.90
2023-02-06T18:52:06.245Z,-0.90
2023-02-06T18:55:10.413Z,-0.90
2023-02-06T18:58:14.525Z,-1.00
2023-02-06T19:01:22.453Z,-0.90
2023-02-06T19:04:26.677Z,-0.90
2023-02-06T19:07:31.454Z,-1.00
2023-02-06T19:10:36.084Z,-0.90
2023-02-06T19:13:40.701Z,-0.80
2023-02-06T19:16:47.322Z,-0.70
2023-02-06T19:19:52.015Z,-0.70
2023-02-06T19:22:57.011Z,-0.70
2023-02-06T19:26:04.904Z,-0.60
2023-02-06T19:29:13.903Z,-0.60
2023-02-06T19:32:18.669Z,-0.60
2023-02-06T19:35:23.462Z,-0.60
2023-02-06T19:38:27.908Z,-0.60
2023-02-06T19:41:33.453Z,-0.50
2023-02-06T19:44:37.821Z,-0.50
2023-02-06T19:47:42.454Z,-0.40
2023-02-06T19:50:46.965Z,-0.40
2023-02-06T19:53:53.025Z,-0.30
2023-02-06T19:56:57.412Z,-0.40
2023-02-06T20:00:01.956Z,-0.30
2023-02-06T20:03:06.415Z,-0.20
2023-02-06T20:06:12.676Z,-0.20
2023-02-06T20:09:19.591Z,-0.20
2023-02-06T20:12:24.189Z,0.00
2023-02-06T20:15:31.917Z,0.00
2023-02-06T20:18:36.865Z,0.00
2023-02-06T20:21:44.233Z,0.00
2023-02-06T20:24:49.000Z,0.20
2023-02-06T20:27:53.264Z,0.20
2023-02-06T20:30:57.699Z,0.30
2023-02-06T20:34:02.605Z,0.30
2023-02-06T20:37:07.288Z,0.40
2023-02-06T20:40:11.775Z,0.50
2023-02-06T20:43:16.180Z,0.60
2023-02-06T20:46:21.671Z,0.60
2023-02-06T20:53:03.670Z,0.40
2023-02-06T20:56:13.195Z,0.40
2023-02-06T20:59:20.950Z,0.50
2023-02-06T21:02:28.570Z,0.60
2023-02-06T21:05:44.982Z,0.70
2023-02-06T21:12:22.483Z,0.60
2023-02-06T21:26:54.565Z,0.70
2023-02-06T21:30:01.948Z,0.60
2023-02-06T21:33:18.677Z,0.50
2023-02-06T21:36:56.401Z,0.60
2023-02-06T21:52:19.660Z,0.90
2023-02-06T21:55:25.953Z,0.90
2023-02-06T22:01:51.504Z,0.70
2023-02-06T22:05:00.834Z,0.60
2023-02-06T22:08:07.458Z,0.50
2023-02-06T22:11:14.874Z,0.60
2023-02-06T22:14:20.391Z,0.50
2023-02-06T22:17:26.189Z,0.40
2023-02-06T22:20:35.908Z,0.50
2023-02-06T22:23:48.579Z,0.50
2023-02-06T22:26:53.559Z,0.60
2023-02-06T22:29:58.417Z,0.50
2023-02-06T22:33:04.017Z,0.60
2023-02-06T22:36:18.727Z,0.50
2023-02-06T22:39:25.515Z,0.70
2023-02-06T22:42:30.559Z,0.60
2023-02-06T22:45:45.297Z,0.60
2023-02-06T22:48:52.660Z,0.50
2023-02-06T22:52:00.760Z,0.70
2023-02-06T22:55:07.032Z,0.60
2023-02-06T22:58:13.959Z,0.60
2023-02-06T23:01:22.123Z,0.60
2023-02-06T23:04:37.059Z,0.60
2023-02-06T23:07:41.770Z,0.50
2023-02-06T23:10:49.366Z,0.60
2023-02-06T23:14:02.985Z,0.40
2023-02-06T23:17:08.590Z,0.40
2023-02-06T23:20:14.152Z,0.50
2023-02-06T23:23:18.973Z,0.50
2023-02-06T23:26:24.139Z,0.50
2023-02-06T23:29:31.826Z,0.50
2023-02-06T23:32:36.558Z,0.60
2023-02-06T23:35:41.756Z,0.40
2023-02-06T23:38:48.040Z,0.40
2023-02-06T23:41:52.856Z,0.40
2023-02-06T23:45:00.388Z,0.50
2023-02-06T23:48:05.573Z,0.30
2023-02-06T23:51:11.193Z,0.40
2023-02-06T23:54:16.349Z,0.50
2023-02-06T23:57:21.402Z,0.60
